Time;durP1;ratioP1;P1;durP2;ratioP2;P2;SDS_P1;SDS_P2;PMS_P1;PMS_P2;Temp;Humidity;BMP_temperature;BMP_pressure;BME280_temperature;BME280_humidity;BME280_pressure;Samples;Min_cycle;Max_cycle;Signal;HPM_P1;HPM_P2
2022/09/19 00:01:12;;;;;;;2.15;0.68;;;9.50;99.90;;;;;;5009964;28;20215;-79
2022/09/19 00:03:40;;;;;;;0.73;0.60;;;9.50;99.90;;;;;;5010904;28;20363;-79
2022/09/19 00:06:10;;;;;;;1.55;0.70;;;9.50;99.90;;;;;;5011031;28;20202;-79
2022/09/19 00:08:37;;;;;;;0.90;0.60;;;9.50;99.90;;;;;;5009640;28;20202;-79
2022/09/19 00:11:06;;;;;;;1.40;0.70;;;9.50;99.90;;;;;;5010365;28;20220;-79
2022/09/19 00:13:35;;;;;;;0.70;0.60;;;9.40;99.90;;;;;;5010690;28;20662;-79
2022/09/19 00:16:02;;;;;;;0.60;0.60;;;9.30;99.90;;;;;;5012103;28;20652;-78
2022/09/19 00:18:31;;;;;;;0.90;0.57;;;9.30;99.90;;;;;;5015949;28;20226;-79
2022/09/19 00:21:00;;;;;;;0.70;0.60;;;9.30;99.90;;;;;;5012211;28;20224;-78
2022/09/19 00:26:10;;;;;;;1.02;0.70;;;9.10;99.90;;;;;;4968723;28;20285;-78
2022/09/19 00:28:38;;;;;;;0.70;0.60;;;9.00;99.90;;;;;;5016960;28;20208;-78
2022/09/19 00:31:06;;;;;;;0.70;0.60;;;8.80;99.90;;;;;;5009256;28;20233;-79
2022/09/19 00:33:35;;;;;;;1.48;0.65;;;8.80;99.90;;;;;;5011504;28;20287;-78
2022/09/19 00:36:03;;;;;;;0.77;0.50;;;8.70;99.90;;;;;;5012883;28;20723;-79
2022/09/19 00:38:32;;;;;;;0.70;0.60;;;8.70;99.90;;;;;;5003925;28;20229;-79
2022/09/19 00:40:59;;;;;;;0.80;0.60;;;8.60;99.90;;;;;;5010188;28;20218;-79
2022/09/19 00:43:49;;;;;;;0.90;0.70;;;8.60;99.90;;;;;;5006914;28;20219;-78
2022/09/19 00:46:17;;;;;;;0.85;0.55;;;8.50;99.90;;;;;;5017829;28;20528;-78
2022/09/19 00:48:51;;;;;;;0.65;0.60;;;8.40;99.90;;;;;;5011042;28;20222;-79
2022/09/19 00:51:23;;;;;;;0.60;0.40;;;8.30;99.90;;;;;;5007482;28;20310;-78
2022/09/19 00:53:51;;;;;;;0.90;0.50;;;8.30;99.90;;;;;;5008964;28;20202;-78
2022/09/19 00:56:19;;;;;;;0.60;0.50;;;8.20;99.90;;;;;;5009210;28;20705;-78
2022/09/19 00:58:47;;;;;;;0.80;0.63;;;8.20;99.90;;;;;;5009905;28;20222;-78
2022/09/19 01:01:15;;;;;;;0.60;0.60;;;8.10;99.90;;;;;;5010208;28;20313;-78
2022/09/19 01:03:45;;;;;;;0.90;0.50;;;8.10;99.90;;;;;;5010021;28;20321;-78
2022/09/19 01:06:35;;;;;;;0.60;0.50;;;8.10;99.90;;;;;;5010204;28;20624;-77
2022/09/19 01:09:23;;;;;;;0.57;0.47;;;8.00;99.90;;;;;;5014384;28;20210;-78
2022/09/19 01:12:20;;;;;;;0.80;0.50;;;8.00;99.90;;;;;;5009010;28;20233;-78
2022/09/19 01:15:09;;;;;;;1.17;0.50;;;8.00;99.90;;;;;;4996620;28;20282;-78
2022/09/19 01:17:45;;;;;;;1.20;0.50;;;8.00;99.90;;;;;;5007260;28;20195;-78
2022/09/19 01:20:43;;;;;;;1.08;0.60;;;7.90;99.90;;;;;;5016203;28;20232;-78
2022/09/19 01:23:35;;;;;;;1.88;0.50;;;7.90;99.90;;;;;;5008208;28;20543;-78
2022/09/19 01:26:15;;;;;;;1.00;0.50;;;7.90;99.90;;;;;;5011367;28;20218;-78
2022/09/19 01:28:48;;;;;;;1.17;0.50;;;7.80;99.90;;;;;;5010449;28;20198;-78
2022/09/19 01:31:20;;;;;;;0.98;0.55;;;7.80;99.90;;;;;;5007987;28;20214;-77
2022/09/19 01:33:55;;;;;;;0.90;0.68;;;7.80;99.90;;;;;;5012369;28;20202;-77
2022/09/19 01:36:26;;;;;;;0.90;0.63;;;7.80;99.90;;;;;;5007135;28;20200;-77
2022/09/19 01:38:54;;;;;;;0.70;0.60;;;7.80;99.90;;;;;;5009978;28;20222;-78
2022/09/19 01:41:21;;;;;;;0.80;0.50;;;7.80;99.90;;;;;;5008163;28;20678;-77
2022/09/19 01:43:51;;;;;;;0.98;0.60;;;7.80;99.90;;;;;;5010546;28;20285;-78
2022/09/19 01:46:27;;;;;;;0.68;0.50;;;7.80;99.90;;;;;;5007169;28;20209;-77
2022/09/19 01:49:06;;;;;;;0.70;0.60;;;7.80;99.90;;;;;;5010614;28;20261;-77
2022/09/19 01:51:39;;;;;;;0.70;0.60;;;7.80;99.90;;;;;;5005810;28;20243;-79
2022/09/19 01:54:35;;;;;;;1.00;0.88;;;7.80;99.90;;;;;;5008220;28;20226;-79
2022/09/19 01:57:10;;;;;;;0.70;0.60;;;7.80;99.90;;;;;;5007812;28;20194;-78
2022/09/19 01:59:50;;;;;;;0.88;0.68;;;7.80;99.90;;;;;;5013642;28;20237;-78
2022/09/19 02:02:29;;;;;;;1.05;0.77;;;7.80;99.90;;;;;;5012722;28;20308;-79
2022/09/19 02:05:03;;;;;;;0.68;0.65;;;7.80;99.90;;;;;;5009376;28;20300;-79
2022/09/19 02:07:42;;;;;;;0.80;0.80;;;7.80;99.90;;;;;;5011649;28;20565;-78
2022/09/19 02:10:14;;;;;;;1.45;0.77;;;7.80;99.90;;;;;;5012983;28;20202;-79
2022/09/19 02:12:44;;;;;;;1.35;0.63;;;7.80;99.90;;;;;;5011846;28;20209;-79
2022/09/19 02:15:15;;;;;;;1.13;0.90;;;7.80;99.90;;;;;;5009015;28;20278;-78
2022/09/19 02:17:50;;;;;;;2.75;0.60;;;7.80;99.90;;;;;;5014599;28;20210;-79
2022/09/19 02:20:21;;;;;;;1.00;0.90;;;7.80;99.90;;;;;;5011556;28;20229;-79
2022/09/19 02:22:51;;;;;;;0.88;0.75;;;7.80;99.90;;;;;;5010692;28;20225;-76
2022/09/19 02:25:23;;;;;;;1.00;0.80;;;7.80;99.90;;;;;;5011260;28;20205;-76
2022/09/19 02:27:54;;;;;;;0.80;0.80;;;7.80;99.90;;;;;;5013118;28;20670;-76
2022/09/19 02:30:23;;;;;;;0.80;0.80;;;7.80;99.90;;;;;;5018383;28;20301;-76
2022/09/19 02:32:53;;;;;;;0.82;0.80;;;7.80;99.90;;;;;;5012175;28;20195;-78
2022/09/19 02:35:25;;;;;;;1.80;0.80;;;7.80;99.90;;;;;;5004100;28;20198;-77
2022/09/19 02:38:01;;;;;;;1.10;0.77;;;7.90;99.90;;;;;;5012846;28;20197;-76
2022/09/19 02:40:35;;;;;;;1.00;0.90;;;7.90;99.90;;;;;;5007038;28;20640;-77
2022/09/19 02:43:14;;;;;;;1.35;0.90;;;7.90;99.90;;;;;;5012106;28;20277;-77
2022/09/19 02:45:46;;;;;;;1.67;0.90;;;7.90;99.90;;;;;;5013202;28;20194;-78
2022/09/19 02:48:21;;;;;;;1.27;0.80;;;7.90;99.90;;;;;;5012758;28;20202;-78
2022/09/19 02:50:58;;;;;;;2.78;0.85;;;7.90;99.90;;;;;;5010302;28;20221;-78
2022/09/19 02:53:29;;;;;;;1.95;0.90;;;7.90;99.90;;;;;;5013440;28;20201;-77
2022/09/19 02:56:00;;;;;;;1.80;0.90;;;7.90;99.90;;;;;;5008382;28;20658;-78
2022/09/19 02:58:31;;;;;;;1.50;0.80;;;7.90;99.90;;;;;;5009238;28;20205;-77
2022/09/19 03:01:03;;;;;;;3.00;1.00;;;8.00;99.90;;;;;;5011352;28;20313;-78
2022/09/19 03:06:25;;;;;;;4.38;1.30;;;8.00;99.90;;;;;;5011244;28;20199;-78
2022/09/19 03:08:53;;;;;;;2.13;0.80;;;8.00;99.90;;;;;;5004391;28;20294;-78
2022/09/19 03:11:24;;;;;;;1.25;0.80;;;8.10;99.90;;;;;;5011873;28;20301;-77
2022/09/19 03:13:58;;;;;;;2.38;0.80;;;8.10;99.90;;;;;;5010476;28;20209;-77
2022/09/19 03:16:35;;;;;;;1.55;0.80;;;8.10;99.90;;;;;;5009779;28;20245;-77
2022/09/19 03:19:04;;;;;;;1.77;0.90;;;8.20;99.90;;;;;;5011553;28;20617;-77
2022/09/19 03:21:31;;;;;;;2.53;0.85;;;8.20;99.90;;;;;;5011217;28;20226;-77
2022/09/19 03:23:59;;;;;;;1.58;0.85;;;8.20;99.90;;;;;;5011378;28;20211;-77
2022/09/19 03:26:30;;;;;;;1.60;0.80;;;8.20;99.90;;;;;;5016400;28;20197;-77
2022/09/19 03:28:58;;;;;;;2.28;0.95;;;8.30;99.90;;;;;;5011328;28;20892;-77
2022/09/19 03:31:26;;;;;;;1.15;1.00;;;8.30;99.90;;;;;;5010664;28;20254;-77
2022/09/19 03:33:55;;;;;;;1.83;0.80;;;8.30;99.90;;;;;;5015663;28;20189;-77
2022/09/19 03:36:23;;;;;;;2.20;1.00;;;8.30;99.90;;;;;;5012813;28;20206;-77
2022/09/19 03:38:51;;;;;;;3.95;1.00;;;8.40;99.90;;;;;;5011329;28;20205;-77
2022/09/19 03:41:22;;;;;;;1.52;0.80;;;8.40;99.90;;;;;;5008937;28;20313;-77
2022/09/19 03:43:50;;;;;;;2.75;1.02;;;8.40;99.90;;;;;;5006645;28;20279;-77
2022/09/19 03:46:19;;;;;;;1.92;0.93;;;8.30;99.90;;;;;;5017668;28;20205;-77
2022/09/19 03:48:47;;;;;;;4.30;0.95;;;8.40;99.90;;;;;;5011569;28;20249;-78
2022/09/19 03:51:16;;;;;;;2.78;0.90;;;8.40;99.90;;;;;;5011953;28;20705;-77
2022/09/19 03:53:44;;;;;;;1.80;1.02;;;8.40;99.90;;;;;;5010793;28;20198;-77
2022/09/19 03:56:11;;;;;;;2.35;0.90;;;8.40;99.90;;;;;;5014246;28;20277;-77
2022/09/19 03:58:39;;;;;;;2.60;1.08;;;8.40;99.90;;;;;;5003824;28;20206;-77
2022/09/19 04:01:06;;;;;;;3.80;1.05;;;8.50;99.90;;;;;;5010560;28;20665;-78
2022/09/19 04:03:34;;;;;;;5.40;1.40;;;8.50;99.90;;;;;;5011342;28;20205;-77
2022/09/19 04:06:03;;;;;;;4.00;1.30;;;8.50;99.90;;;;;;5011690;28;20581;-77
2022/09/19 04:08:30;;;;;;;2.65;0.98;;;8.60;99.90;;;;;;5008897;28;20199;-78
2022/09/19 04:10:57;;;;;;;5.18;1.20;;;8.60;99.90;;;;;;5009548;28;20547;-77
2022/09/19 04:13:24;;;;;;;2.70;1.10;;;8.60;99.90;;;;;;5012466;28;20201;-77
2022/09/19 04:15:51;;;;;;;3.95;1.10;;;8.60;99.90;;;;;;5010100;28;20205;-77
2022/09/19 04:18:19;;;;;;;5.55;1.77;;;8.70;99.90;;;;;;5010487;28;20205;-77
2022/09/19 04:20:51;;;;;;;2.45;0.95;;;8.70;99.90;;;;;;5010757;28;20235;-76
2022/09/19 04:23:19;;;;;;;1.92;1.20;;;8.70;99.90;;;;;;5015643;28;20211;-76
2022/09/19 04:25:47;;;;;;;1.95;0.90;;;8.70;99.90;;;;;;5009451;28;20273;-76
2022/09/19 04:28:16;;;;;;;5.22;1.70;;;8.80;99.90;;;;;;5010429;28;20208;-76
2022/09/19 04:30:44;;;;;;;3.05;0.90;;;8.80;99.90;;;;;;5011991;28;20229;-78
2022/09/19 04:33:14;;;;;;;4.00;1.00;;;8.80;99.90;;;;;;5011195;28;20206;-76
2022/09/19 04:35:44;;;;;;;2.35;0.90;;;8.80;99.90;;;;;;5003774;28;20206;-76
2022/09/19 04:38:13;;;;;;;2.45;1.27;;;8.80;99.90;;;;;;5009578;28;20286;-76
2022/09/19 04:40:44;;;;;;;4.93;1.30;;;8.80;99.90;;;;;;5010576;28;20232;-77
2022/09/19 04:43:13;;;;;;;1.92;1.10;;;8.90;99.90;;;;;;5007763;28;20196;-76
2022/09/19 04:45:42;;;;;;;2.70;1.27;;;8.90;99.90;;;;;;5008926;28;20222;-76
2022/09/19 04:48:10;;;;;;;2.03;1.05;;;9.00;99.90;;;;;;5011289;28;20242;-77
2022/09/19 04:50:37;;;;;;;2.63;1.27;;;9.00;99.90;;;;;;5010690;28;20270;-76
2022/09/19 04:53:05;;;;;;;3.47;1.20;;;9.00;99.90;;;;;;5004843;28;20286;-76
2022/09/19 04:55:32;;;;;;;2.30;1.23;;;9.00;99.90;;;;;;5004173;28;20600;-78
2022/09/19 04:58:02;;;;;;;4.63;1.70;;;9.10;99.90;;;;;;4994174;28;20224;-79
2022/09/19 05:00:38;;;;;;;3.10;1.20;;;9.20;99.90;;;;;;4999556;28;20254;-75
2022/09/19 05:03:07;;;;;;;2.15;1.00;;;9.20;99.90;;;;;;5001277;28;20203;-76
2022/09/19 05:05:36;;;;;;;3.92;1.42;;;9.20;99.90;;;;;;4994587;28;20207;-80
2022/09/19 05:08:04;;;;;;;3.70;1.45;;;9.20;99.90;;;;;;4996016;28;20203;-78
2022/09/19 05:10:33;;;;;;;4.45;1.10;;;9.30;99.90;;;;;;4999076;28;20242;-79
2022/09/19 05:13:01;;;;;;;4.05;1.10;;;9.30;99.90;;;;;;4998506;28;20239;-79
2022/09/19 05:15:28;;;;;;;3.05;1.40;;;9.30;99.90;;;;;;4989975;28;20226;-79
2022/09/19 05:17:56;;;;;;;2.72;1.10;;;9.30;99.90;;;;;;5003886;28;20303;-82
2022/09/19 05:20:25;;;;;;;4.35;1.42;;;9.30;99.90;;;;;;4998591;28;20228;-79
2022/09/19 05:22:58;;;;;;;3.85;1.63;;;9.40;99.90;;;;;;5002839;28;20647;-79
2022/09/19 05:25:28;;;;;;;5.68;1.73;;;9.40;99.90;;;;;;4989155;28;20220;-77
2022/09/19 05:27:58;;;;;;;2.58;1.60;;;9.40;99.90;;;;;;4997119;28;20192;-78
2022/09/19 05:30:29;;;;;;;4.00;1.55;;;9.40;99.90;;;;;;5013138;28;20223;-78
2022/09/19 05:32:57;;;;;;;5.43;1.67;;;9.40;99.90;;;;;;5011318;28;20236;-78
2022/09/19 05:35:24;;;;;;;3.17;1.35;;;9.50;99.90;;;;;;5008064;28;20204;-79
2022/09/19 05:37:52;;;;;;;4.03;1.30;;;9.50;99.90;;;;;;5010561;28;20196;-80
2022/09/19 05:40:19;;;;;;;7.70;1.77;;;9.50;99.90;;;;;;5001823;28;20834;-79
2022/09/19 05:42:47;;;;;;;3.85;1.30;;;9.50;99.90;;;;;;5004572;28;20192;-78
2022/09/19 05:45:15;;;;;;;2.67;1.60;;;9.50;99.90;;;;;;4997981;28;20211;-79
2022/09/19 05:47:44;;;;;;;3.80;1.77;;;9.50;99.90;;;;;;5000661;28;20670;-79
2022/09/19 05:50:12;;;;;;;2.70;1.27;;;9.50;99.90;;;;;;5013188;28;20231;-79
2022/09/19 05:55:28;;;;;;;3.35;1.30;;;9.60;99.90;;;;;;5009078;28;21273;-79
2022/09/19 05:57:56;;;;;;;3.22;1.38;;;9.60;99.90;;;;;;5015313;28;20206;-78
2022/09/19 06:00:25;;;;;;;5.38;1.50;;;9.60;99.90;;;;;;5013062;28;20246;-79
2022/09/19 06:03:00;;;;;;;3.35;1.33;;;9.70;99.90;;;;;;5010047;28;20231;-78
2022/09/19 06:05:32;;;;;;;5.85;2.00;;;9.70;99.90;;;;;;5003636;28;20230;-79
2022/09/19 06:07:59;;;;;;;5.75;2.28;;;9.70;99.90;;;;;;5001960;28;20200;-78
2022/09/19 06:10:28;;;;;;;5.63;2.15;;;9.80;99.90;;;;;;5008247;28;20679;-78
2022/09/19 06:12:55;;;;;;;2.70;1.90;;;9.80;99.90;;;;;;5010388;28;20319;-78
2022/09/19 06:15:22;;;;;;;4.85;1.52;;;9.80;99.90;;;;;;5008122;28;20213;-78
2022/09/19 06:17:54;;;;;;;5.60;1.73;;;9.80;99.90;;;;;;5005700;28;20862;-78
2022/09/19 06:20:23;;;;;;;4.35;1.70;;;9.80;99.90;;;;;;5017019;28;20240;-78
2022/09/19 06:22:51;;;;;;;7.32;1.80;;;9.80;99.90;;;;;;5004626;28;20203;-78
2022/09/19 06:25:19;;;;;;;2.63;1.35;;;9.90;99.90;;;;;;5006664;28;20202;-78
2022/09/19 06:27:54;;;;;;;3.95;1.35;;;9.90;99.90;;;;;;5003740;28;20282;-78
2022/09/19 06:30:22;;;;;;;3.05;1.75;;;9.90;99.90;;;;;;5002510;28;20224;-80
2022/09/19 06:32:49;;;;;;;8.02;1.70;;;9.90;99.90;;;;;;4999399;28;20200;-77
2022/09/19 06:35:16;;;;;;;7.15;1.90;;;10.00;99.90;;;;;;5007216;28;20583;-78
2022/09/19 06:37:44;;;;;;;4.97;1.50;;;10.10;99.90;;;;;;5005528;28;20284;-77
2022/09/19 06:40:25;;;;;;;4.18;1.58;;;10.10;99.90;;;;;;5004641;28;20344;-76
2022/09/19 06:42:58;;;;;;;5.72;1.60;;;10.10;99.90;;;;;;4999756;28;20898;-77
2022/09/19 06:45:25;;;;;;;3.65;1.42;;;10.20;99.90;;;;;;4997008;28;22234;-78
2022/09/19 06:47:56;;;;;;;5.72;1.75;;;10.30;99.90;;;;;;4999939;28;20340;-77
2022/09/19 06:50:24;;;;;;;3.60;1.92;;;10.30;99.90;;;;;;5002404;28;20321;-78
2022/09/19 06:52:52;;;;;;;5.82;2.28;;;10.30;99.90;;;;;;4998210;28;20202;-77
2022/09/19 06:55:20;;;;;;;3.40;1.38;;;10.30;99.90;;;;;;5007137;28;20206;-77
2022/09/19 06:57:55;;;;;;;12.48;3.85;;;10.40;99.90;;;;;;4991596;28;20225;-77
2022/09/19 07:00:24;;;;;;;7.90;1.95;;;10.30;99.90;;;;;;4985832;28;20245;-75
2022/09/19 07:02:54;;;;;;;7.47;1.90;;;10.40;99.90;;;;;;5001017;28;20190;-77
2022/09/19 07:05:21;;;;;;;9.63;2.40;;;10.40;99.90;;;;;;5015663;28;20200;-78
2022/09/19 07:07:51;;;;;;;7.38;2.10;;;10.50;99.90;;;;;;4999018;28;20285;-77
2022/09/19 07:10:20;;;;;;;5.47;2.03;;;10.50;99.90;;;;;;5009797;28;20311;-78
2022/09/19 07:12:55;;;;;;;5.97;2.33;;;10.60;99.90;;;;;;5001195;28;20213;-79
2022/09/19 07:15:22;;;;;;;5.28;1.60;;;10.60;99.90;;;;;;4991920;28;20311;-78
2022/09/19 07:17:49;;;;;;;7.10;1.90;;;10.60;99.90;;;;;;4994193;28;20198;-79
2022/09/19 07:20:16;;;;;;;4.25;1.48;;;10.60;99.90;;;;;;5007281;28;20240;-78
2022/09/19 07:22:43;;;;;;;6.43;2.08;;;10.60;99.90;;;;;;5001719;28;20247;-79
2022/09/19 07:25:10;;;;;;;8.23;1.95;;;10.60;99.90;;;;;;4999023;28;20264;-79
2022/09/19 07:27:41;;;;;;;5.78;1.85;;;10.70;99.90;;;;;;5000368;28;20225;-78
2022/09/19 07:30:10;;;;;;;4.68;1.45;;;10.70;99.90;;;;;;5000887;28;20389;-81
2022/09/19 07:32:37;;;;;;;5.75;2.13;;;10.80;99.90;;;;;;4971948;28;20207;-71
2022/09/19 07:35:05;;;;;;;5.60;1.95;;;10.80;99.90;;;;;;5007552;28;20201;-70
2022/09/19 07:37:32;;;;;;;4.90;1.85;;;10.90;99.90;;;;;;5003773;28;20198;-70
2022/09/19 07:39:59;;;;;;;6.85;2.08;;;11.00;99.90;;;;;;4999437;28;20217;-72
2022/09/19 07:42:26;;;;;;;4.63;1.90;;;10.90;99.90;;;;;;5006775;28;20708;-71
2022/09/19 07:44:55;;;;;;;6.38;2.10;;;10.90;99.90;;;;;;5014173;28;20235;-72
2022/09/19 07:47:28;;;;;;;6.53;1.95;;;10.90;99.90;;;;;;4986832;28;20210;-72
2022/09/19 07:49:55;;;;;;;8.00;2.05;;;10.90;99.90;;;;;;5007399;28;20214;-72
2022/09/19 07:52:23;;;;;;;4.45;1.90;;;11.00;99.90;;;;;;5001746;28;20209;-72
2022/09/19 07:54:50;;;;;;;3.80;1.90;;;11.00;99.90;;;;;;4997511;28;20199;-72
2022/09/19 07:57:18;;;;;;;5.93;1.60;;;11.00;99.90;;;;;;4999118;28;20194;-72
2022/09/19 07:59:47;;;;;;;4.10;2.13;;;11.10;99.90;;;;;;4995136;28;20229;-72
2022/09/19 08:02:15;;;;;;;4.22;1.60;;;11.10;99.90;;;;;;4991572;28;20262;-69
2022/09/19 08:04:42;;;;;;;5.95;1.60;;;11.10;99.90;;;;;;5002058;28;20209;-70
2022/09/19 08:07:09;;;;;;;7.90;2.35;;;11.10;99.90;;;;;;5001255;28;20194;-70
2022/09/19 08:09:36;;;;;;;4.38;2.15;;;11.10;99.90;;;;;;5006959;28;22144;-70
2022/09/19 08:12:05;;;;;;;5.80;2.00;;;11.20;99.90;;;;;;4995296;28;20597;-71
2022/09/19 08:14:32;;;;;;;3.20;1.75;;;11.20;99.90;;;;;;5003213;28;22725;-71
2022/09/19 08:17:00;;;;;;;5.25;1.95;;;11.30;99.90;;;;;;4984889;28;20205;-71
2022/09/19 08:19:28;;;;;;;6.38;1.65;;;11.30;99.90;;;;;;4992170;28;20210;-71
2022/09/19 08:21:57;;;;;;;4.82;1.90;;;11.30;99.90;;;;;;5006208;28;20268;-70
2022/09/19 08:24:24;;;;;;;7.82;2.22;;;11.30;99.90;;;;;;5003218;28;20209;-70
2022/09/19 08:26:51;;;;;;;5.18;1.63;;;11.30;99.90;;;;;;5006007;28;20808;-70
2022/09/19 08:29:18;;;;;;;3.65;1.90;;;11.30;99.90;;;;;;5001019;28;20280;-71
2022/09/19 08:31:45;;;;;;;7.35;2.22;;;11.40;99.90;;;;;;4995029;28;20742;-70
2022/09/19 08:34:12;;;;;;;5.53;2.00;;;11.40;99.90;;;;;;5002881;28;20295;-71
2022/09/19 08:36:40;;;;;;;4.22;2.10;;;11.40;99.90;;;;;;4999204;28;20222;-71
2022/09/19 08:39:07;;;;;;;5.70;1.83;;;11.50;99.90;;;;;;4994670;28;20214;-71
2022/09/19 08:41:55;;;;;;;4.35;1.90;;;11.50;99.90;;;;;;4985075;28;20230;-71
2022/09/19 08:44:29;;;;;;;5.80;1.90;;;11.60;99.90;;;;;;4994272;28;20213;-71
2022/09/19 08:47:02;;;;;;;4.15;1.70;;;11.70;99.90;;;;;;5006107;28;20197;-71
2022/09/19 08:49:36;;;;;;;4.57;1.75;;;11.80;99.90;;;;;;5000504;28;20778;-71
2022/09/19 08:52:09;;;;;;;4.25;1.75;;;11.90;99.90;;;;;;4995983;28;20237;-71
2022/09/19 08:54:40;;;;;;;7.38;2.20;;;12.00;99.90;;;;;;5005826;28;20280;-71
2022/09/19 08:57:16;;;;;;;6.95;2.53;;;12.00;99.90;;;;;;5007344;28;20539;-71
2022/09/19 08:59:46;;;;;;;4.70;2.20;;;12.00;99.90;;;;;;4985990;28;20221;-72
2022/09/19 09:02:26;;;;;;;4.68;2.05;;;12.00;99.90;;;;;;4999935;28;21705;-71
2022/09/19 09:04:54;;;;;;;6.30;2.60;;;12.00;99.90;;;;;;4998912;28;20202;-72
2022/09/19 09:07:35;;;;;;;3.85;2.00;;;12.00;99.90;;;;;;4996036;28;20202;-72
2022/09/19 09:10:21;;;;;;;7.80;2.25;;;12.00;99.90;;;;;;5003187;28;20323;-71
2022/09/19 09:12:58;;;;;;;4.97;2.35;;;12.00;99.90;;;;;;4993320;28;20221;-72
2022/09/19 09:15:30;;;;;;;5.65;2.38;;;12.00;99.90;;;;;;4998560;28;20203;-72
2022/09/19 09:18:22;;;;;;;6.00;2.20;;;12.00;99.90;;;;;;5000426;28;20204;-72
2022/09/19 09:20:53;;;;;;;4.20;1.67;;;12.00;99.90;;;;;;5002095;28;20589;-71
2022/09/19 09:23:28;;;;;;;14.15;10.25;;;12.00;99.90;;;;;;4999059;28;20208;-72
2022/09/19 09:26:01;;;;;;;3.50;2.10;;;12.10;99.90;;;;;;4997934;28;20189;-72
2022/09/19 09:28:41;;;;;;;4.50;2.10;;;12.20;99.90;;;;;;5000177;28;20221;-72
2022/09/19 09:31:17;;;;;;;3.08;2.25;;;12.40;99.90;;;;;;5002140;28;20582;-72
2022/09/19 09:33:52;;;;;;;6.75;1.83;;;12.40;99.90;;;;;;4995101;28;20634;-72
2022/09/19 09:36:23;;;;;;;4.85;1.70;;;12.40;99.90;;;;;;4999887;28;20198;-72
2022/09/19 09:38:56;;;;;;;6.80;2.28;;;12.40;99.90;;;;;;4998214;28;20313;-72
2022/09/19 09:41:47;;;;;;;4.30;2.03;;;12.50;99.90;;;;;;5001429;28;20218;-72
2022/09/19 09:44:32;;;;;;;4.13;1.98;;;12.60;99.90;;;;;;4991890;28;20341;-72
2022/09/19 09:47:05;;;;;;;3.50;1.70;;;12.70;99.90;;;;;;5004354;28;20195;-72
2022/09/19 09:49:33;;;;;;;5.93;1.63;;;12.80;99.90;;;;;;5008106;28;20221;-72
2022/09/19 09:52:28;;;;;;;5.30;2.25;;;12.90;99.90;;;;;;5006840;28;20860;-72
2022/09/19 09:58:05;;;;;;;2.67;1.80;;;13.10;99.90;;;;;;4996693;28;20452;-68
2022/09/19 10:03:36;;;;;;;3.50;1.88;;;13.30;99.90;;;;;;4998834;28;20202;-69
2022/09/19 10:06:09;;;;;;;4.20;1.90;;;13.30;99.90;;;;;;5000819;28;20198;-68
2022/09/19 10:08:43;;;;;;;3.93;1.77;;;13.30;99.90;;;;;;4997490;28;21072;-68
2022/09/19 10:11:16;;;;;;;4.35;2.15;;;13.20;99.90;;;;;;5000098;28;20472;-68
2022/09/19 10:13:49;;;;;;;5.67;1.80;;;13.20;99.90;;;;;;4997190;28;20216;-68
2022/09/19 10:16:18;;;;;;;5.53;1.57;;;13.10;99.90;;;;;;5000960;28;20557;-67
2022/09/19 10:18:50;;;;;;;6.43;1.90;;;13.20;99.90;;;;;;4998116;28;20552;-68
2022/09/19 10:21:18;;;;;;;3.50;1.50;;;13.20;99.90;;;;;;5001215;28;20302;-68
2022/09/19 10:23:45;;;;;;;2.40;1.73;;;13.40;99.90;;;;;;5003012;28;20218;-67
2022/09/19 10:26:16;;;;;;;3.73;1.90;;;13.50;99.90;;;;;;4994230;28;20216;-68
2022/09/19 10:28:51;;;;;;;7.87;2.53;;;13.70;99.90;;;;;;5001448;28;20509;-70
2022/09/19 10:31:24;;;;;;;7.50;1.90;;;13.80;99.90;;;;;;4995367;28;20465;-68
2022/09/19 10:33:52;;;;;;;3.33;1.47;;;14.00;99.90;;;;;;4994696;28;20459;-70
2022/09/19 10:36:21;;;;;;;3.40;1.50;;;14.30;99.90;;;;;;4995984;28;20557;-70
2022/09/19 10:38:50;;;;;;;3.00;1.70;;;14.50;99.90;;;;;;4999896;28;20506;-69
2022/09/19 10:41:22;;;;;;;4.20;2.07;;;14.70;99.90;;;;;;4991401;28;20453;-68
2022/09/19 10:43:51;;;;;;;4.40;1.80;;;14.90;99.90;;;;;;4999384;28;20540;-69
2022/09/19 10:46:21;;;;;;;4.97;1.73;;;15.20;99.90;;;;;;5003200;28;20523;-69
2022/09/19 10:48:56;;;;;;;2.47;1.50;;;15.40;99.90;;;;;;4995936;28;20488;-68
2022/09/19 10:51:28;;;;;;;3.97;1.53;;;15.60;99.90;;;;;;5001831;28;20460;-68
2022/09/19 10:53:57;;;;;;;5.53;1.40;;;15.60;99.90;;;;;;5003514;28;20468;-69
2022/09/19 10:56:29;;;;;;;3.77;1.40;;;15.50;99.90;;;;;;4995703;28;20511;-69
2022/09/19 10:59:03;;;;;;;4.00;2.07;;;15.60;99.90;;;;;;4997609;28;20484;-69
2022/09/19 11:01:30;;;;;;;3.47;1.67;;;15.50;99.90;;;;;;5000571;28;20516;-69
2022/09/19 11:03:59;;;;;;;5.10;1.50;;;15.50;99.90;;;;;;5001515;28;20461;-69
2022/09/19 11:06:26;;;;;;;3.63;1.40;;;15.40;99.90;;;;;;4996968;28;20794;-69
2022/09/19 11:08:55;;;;;;;4.77;1.93;;;15.30;99.90;;;;;;4998430;28;20476;-68
2022/09/19 11:11:37;;;;;;;3.13;1.80;;;15.30;99.90;;;;;;5001598;28;20467;-69
2022/09/19 11:14:31;;;;;;;2.40;1.40;;;15.50;99.90;;;;;;5003895;28;20473;-69
2022/09/19 11:17:22;;;;;;;3.67;1.63;;;15.80;99.90;;;;;;4976398;28;21080;-69
2022/09/19 11:20:16;;;;;;;3.00;1.67;;;16.20;99.90;;;;;;4996255;28;20468;-69
2022/09/19 11:23:17;;;;;;;2.23;1.53;;;16.30;99.90;;;;;;4995505;28;20892;-69
2022/09/19 11:25:53;;;;;;;3.40;1.57;;;16.20;99.90;;;;;;4997821;28;20473;-68
2022/09/19 11:28:29;;;;;;;2.60;1.40;;;15.90;99.90;;;;;;4988909;28;20485;-69
2022/09/19 11:31:05;;;;;;;8.47;2.63;;;15.80;99.90;;;;;;5000957;28;20472;-69
2022/09/19 11:33:53;;;;;;;4.10;1.90;;;15.70;99.90;;;;;;4990612;28;20460;-70
2022/09/19 11:36:29;;;;;;;3.30;1.80;;;15.70;99.90;;;;;;4991551;28;20552;-70
2022/09/19 11:39:04;;;;;;;2.63;1.40;;;15.70;99.90;;;;;;4997371;28;20488;-69
2022/09/19 11:41:40;;;;;;;3.73;1.83;;;15.60;99.90;;;;;;4999795;28;20460;-68
2022/09/19 11:44:41;;;;;;;2.37;1.53;;;15.40;99.90;;;;;;5003812;28;20452;-68
2022/09/19 11:47:29;;;;;;;3.33;1.83;;;15.30;99.90;;;;;;4977345;28;20870;-69
2022/09/19 11:50:28;;;;;;;3.73;1.70;;;15.20;99.90;;;;;;4993613;28;20559;-69
2022/09/19 11:53:29;;;;;;;3.00;1.37;;;15.30;99.90;;;;;;5000189;28;20452;-69
2022/09/19 11:56:05;;;;;;;4.90;1.90;;;15.60;99.90;;;;;;4966189;28;20466;-69
2022/09/19 11:58:42;;;;;;;3.37;1.60;;;15.90;99.90;;;;;;4991593;28;20523;-69
2022/09/19 12:01:28;;;;;;;5.80;1.70;;;16.20;99.90;;;;;;4995933;28;20467;-69
2022/09/19 12:04:18;;;;;;;4.30;1.53;;;16.50;99.90;;;;;;5008101;28;20473;-70
2022/09/19 12:07:05;;;;;;;2.00;1.23;;;17.10;99.90;;;;;;5003274;28;20456;-69
2022/09/19 12:09:36;;;;;;;3.90;1.80;;;17.50;99.90;;;;;;5005988;28;21013;-69
2022/09/19 12:12:10;;;;;;;2.57;1.70;;;17.90;99.90;;;;;;4991448;28;20471;-69
2022/09/19 12:14:42;;;;;;;3.43;1.40;;;18.20;99.90;;;;;;5001977;28;20493;-69
2022/09/19 12:17:14;;;;;;;3.10;1.37;;;18.30;99.90;;;;;;5016359;28;20463;-69
2022/09/19 12:19:46;;;;;;;3.77;1.70;;;18.40;99.90;;;;;;5010110;28;20561;-69
2022/09/19 12:22:16;;;;;;;2.53;1.40;;;18.60;99.90;;;;;;5010967;28;20516;-69
2022/09/19 12:24:52;;;;;;;4.00;1.67;;;18.80;99.90;;;;;;5004798;28;20821;-69
2022/09/19 12:27:26;;;;;;;3.03;1.40;;;19.30;99.90;;;;;;4998845;28;20559;-69
2022/09/19 12:30:05;;;;;;;2.03;1.27;;;19.90;99.90;;;;;;5010839;28;20468;-70
2022/09/19 12:32:38;;;;;;;2.53;1.50;;;20.20;99.90;;;;;;5002934;28;20500;-69
2022/09/19 12:35:15;;;;;;;2.30;1.60;;;20.20;99.90;;;;;;5004314;28;20455;-69
2022/09/19 12:37:50;;;;;;;4.10;1.27;;;20.10;99.90;;;;;;5004517;28;20978;-70
2022/09/19 12:40:28;;;;;;;3.17;1.70;;;20.20;99.90;;;;;;5002722;28;20465;-69
2022/09/19 12:43:01;;;;;;;3.57;1.57;;;20.10;99.90;;;;;;4986316;28;20493;-70
2022/09/19 12:45:37;;;;;;;3.00;1.10;;;19.80;99.90;;;;;;5004987;28;21079;-69
2022/09/19 12:48:14;;;;;;;2.30;1.20;;;19.50;99.90;;;;;;5004670;28;20646;-69
2022/09/19 12:50:45;;;;;;;2.23;1.20;;;19.30;99.90;;;;;;4997310;28;20546;-69
2022/09/19 12:53:21;;;;;;;2.93;1.50;;;19.30;99.90;;;;;;5001246;28;20456;-69
2022/09/19 12:55:57;;;;;;;3.00;1.40;;;19.30;99.90;;;;;;4992921;28;20852;-69
2022/09/19 12:58:27;;;;;;;3.90;1.50;;;19.40;99.90;;;;;;5001926;28;20507;-77
2022/09/19 13:01:08;;;;;;;8.63;1.60;;;19.70;99.90;;;;;;4988980;28;20467;-76
2022/09/19 13:03:40;;;;;;;3.60;1.63;;;19.70;99.90;;;;;;5009001;28;20509;-72
2022/09/19 13:06:17;;;;;;;3.00;1.10;;;20.00;99.90;;;;;;5006731;28;20828;-71
2022/09/19 13:08:50;;;;;;;2.63;1.20;;;20.70;99.90;;;;;;5000927;28;20526;-70
2022/09/19 13:11:24;;;;;;;2.20;0.97;;;21.50;99.90;;;;;;4993061;28;20547;-70
2022/09/19 13:13:56;;;;;;;2.07;1.23;;;21.90;99.90;;;;;;4999806;28;20964;-70
2022/09/19 13:16:29;;;;;;;2.27;1.33;;;22.30;99.90;;;;;;4994455;28;20795;-70
2022/09/19 13:24:38;;;;;;;4.00;1.40;;;21.00;99.50;;;;;;4998981;28;20465;-70
2022/09/19 13:27:06;;;;;;;3.17;1.20;;;19.70;99.90;;;;;;5006618;28;20473;-70
2022/09/19 13:29:49;;;;;;;5.23;1.57;;;19.30;99.90;;;;;;4995067;28;20540;-70
2022/09/19 13:32:34;;;;;;;1.57;1.30;;;19.50;99.90;;;;;;4997188;28;20454;-69
2022/09/19 13:35:14;;;;;;;2.30;1.17;;;19.20;99.90;;;;;;4992821;28;20481;-67
2022/09/19 13:37:51;;;;;;;1.70;1.13;;;18.70;99.90;;;;;;4996014;28;21026;-70
2022/09/19 13:40:29;;;;;;;2.47;1.33;;;18.90;99.90;;;;;;5004026;28;20555;-70